Station Historical Data
Daily Summary for November 1, 2017 Units:  Metric    English   Both
« Previous Day
Next Day »
Daily Weekly Monthly Yearly Custom
  High: Low: Average:
Temperature: 21.2 °C 8.1 °C 13.4 °C
Dew Point: 13 °C 6.9 °C 10.2 °C
Humidity: 93% 51% 82%
Wind Speed: 3.7km/h 0km/h 0.3km/h
Wind Gust: 3.7km/h - -
Wind- - WSW
Pressure: 1023.6 hPa 1020.5 hPa -
Precipitation: 0.51 mm    
Historical Graphs
 
 
Tabular Data for November 1, 2017
Time Temperature Dew Point Pressure Wind Wind Speed Wind Gust Humidity Rainfall Rate (Hourly) solar Conditions
00:04 9.5 °C 7.9 °C 1021.2 hPa Calm     90% 0 mm WeatherDisplay:10.37 W/m2 CLR
00:09 9.6 °C 8.2 °C 1021.2 hPa Calm     91% 0 mm WeatherDisplay:10.37 W/m2 CLR
00:14 9.6 °C 8.1 °C 1021.2 hPa Calm     90% 0 mm WeatherDisplay:10.37 W/m2 CLR
00:19 9.5 °C 7.9 °C 1021.2 hPa Calm     90% 0 mm WeatherDisplay:10.37 W/m2 CLR
00:24 9.6 °C 8.2 °C 1021.2 hPa Calm     91% 0 mm WeatherDisplay:10.37 W/m2 CLR
00:29 9.8 °C 8.4 °C 1021.2 hPa Calm     91% 0 mm WeatherDisplay:10.37 W/m2 CLR
00:34 9.9 °C 8.6 °C 1021.2 hPa Calm     91% 0 mm WeatherDisplay:10.37 W/m2 CLR
00:39 9.8 °C 8.2 °C 1021.2 hPa Calm     90% 0 mm WeatherDisplay:10.37 W/m2 CLR
00:44 9.6 °C 8.1 °C 1020.9 hPa Calm     90% 0 mm WeatherDisplay:10.37 W/m2 CLR
00:49 9.8 °C 8.4 °C 1021.2 hPa Calm     91% 0 mm WeatherDisplay:10.37 W/m2 CLR
00:53 10.1 °C 8.7 °C 1021.2 hPa Calm     91% 0 mm WeatherDisplay:10.37 W/m2 CLR
00:58 10.2 °C 8.8 °C 1021.2 hPa Calm     91% 0 mm WeatherDisplay:10.37 W/m2 CLR
01:03 9.9 °C 8.4 °C 1021.2 hPa Calm     90% 0 mm WeatherDisplay:10.37 W/m2 CLR
01:09 9.6 °C 7.9 °C 1021.2 hPa Calm     89% 0 mm WeatherDisplay:10.37 W/m2 CLR
01:14 9.4 °C 7.7 °C 1021.2 hPa Calm     89% 0 mm WeatherDisplay:10.37 W/m2 CLR
01:19 9.3 °C 7.8 °C 1021.2 hPa Calm     90% 0 mm WeatherDisplay:10.37 W/m2 CLR
01:24 9.2 °C 7.7 °C 1021.2 hPa Calm     90% 0 mm WeatherDisplay:10.37 W/m2 CLR
01:29 9.2 °C 7.6 °C 1021.2 hPa Calm     90% 0 mm WeatherDisplay:10.37 W/m2 CLR
01:34 9.1 °C 7.6 °C 1021.2 hPa Calm     90% 0 mm WeatherDisplay:10.37 W/m2 CLR
01:39 9.1 °C 7.7 °C 1021.2 hPa Calm     91% 0 mm WeatherDisplay:10.37 W/m2 CLR
01:44 9 °C 7.4 °C 1021.2 hPa Calm     90% 0 mm WeatherDisplay:10.37 W/m2 CLR
01:49 9 °C 7.6 °C 1021.2 hPa Calm     91% 0 mm WeatherDisplay:10.37 W/m2 CLR
01:54 8.9 °C 7.6 °C 1021.2 hPa Calm     91% 0 mm WeatherDisplay:10.37 W/m2 CLR
01:59 9 °C 7.6 °C 1021.2 hPa Calm     91% 0 mm WeatherDisplay:10.37 W/m2 CLR
02:04 8.9 °C 7.5 °C 1021.2 hPa Calm     91% 0 mm WeatherDisplay:10.37 W/m2 CLR
02:09 8.8 °C 7.4 °C 1021.2 hPa Calm     91% 0 mm WeatherDisplay:10.37 W/m2 CLR
02:14 8.8 °C 7.4 °C 1021.2 hPa Calm     91% 0 mm WeatherDisplay:10.37 W/m2 CLR
02:19 9.1 °C 7.9 °C 1020.9 hPa Calm     92% 0 mm WeatherDisplay:10.37 W/m2 CLR
02:25 9.3 °C 8.1 °C 1020.9 hPa Calm     92% 0 mm WeatherDisplay:10.37 W/m2 CLR
02:30 9.2 °C 7.8 °C 1020.9 hPa Calm     91% 0 mm WeatherDisplay:10.37 W/m2 CLR
02:35 9.2 °C 7.8 °C 1020.9 hPa Calm     91% 0 mm WeatherDisplay:10.37 W/m2 CLR
02:40 9 °C 7.6 °C 1020.9 hPa Calm     91% 0 mm WeatherDisplay:10.37 W/m2 CLR
02:45 8.9 °C 7.5 °C 1021.2 hPa Calm     91% 0 mm WeatherDisplay:10.37 W/m2 CLR
02:50 8.9 °C 7.5 °C 1020.9 hPa Calm     91% 0 mm WeatherDisplay:10.37 W/m2 CLR
02:55 8.9 °C 7.5 °C 1020.9 hPa Calm     91% 0 mm WeatherDisplay:10.37 W/m2 CLR
03:00 8.8 °C 7.4 °C 1021.2 hPa Calm     91% 0 mm WeatherDisplay:10.37 W/m2 CLR
03:05 8.7 °C 7.3 °C 1021.2 hPa Calm     91% 0 mm WeatherDisplay:10.37 W/m2 CLR
03:10 8.7 °C 7.3 °C 1021.2 hPa Calm     91% 0 mm WeatherDisplay:10.37 W/m2 CLR
03:15 8.6 °C 7.2 °C 1021.6 hPa Calm     91% 0 mm WeatherDisplay:10.37 W/m2 CLR
03:20 8.5 °C 7.1 °C 1021.6 hPa Calm     91% 0 mm WeatherDisplay:10.37 W/m2 CLR
03:25 8.5 °C 7.1 °C 1021.6 hPa Calm     91% 0 mm WeatherDisplay:10.37 W/m2 CLR
03:30 8.4 °C 7.1 °C 1021.6 hPa Calm     91% 0 mm WeatherDisplay:10.37 W/m2 CLR
03:35 8.4 °C 7 °C 1021.6 hPa Calm     91% 0 mm WeatherDisplay:10.37 W/m2 CLR
03:36 8.4 °C 7 °C 1021.2 hPa Calm     91% 0 mm WeatherDisplay:10.37 W/m2 CLR
03:41 8.3 °C 6.9 °C 1021.6 hPa Calm     91% 0 mm WeatherDisplay:10.37 W/m2 CLR
03:46 8.3 °C 6.9 °C 1021.6 hPa Calm     91% 0 mm WeatherDisplay:10.37 W/m2 CLR
03:51 8.3 °C 6.9 °C 1021.6 hPa Calm     91% 0 mm WeatherDisplay:10.37 W/m2 CLR
03:56 8.3 °C 6.9 °C 1021.2 hPa Calm     91% 0 mm WeatherDisplay:10.37 W/m2 CLR
04:01 8.3 °C 6.9 °C 1021.2 hPa Calm     91% 0 mm WeatherDisplay:10.37 W/m2 CLR
04:06 8.3 °C 7.1 °C 1021.2 hPa Calm     92% 0 mm WeatherDisplay:10.37 W/m2 CLR
04:11 8.4 °C 7.2 °C 1021.2 hPa Calm     92% 0 mm WeatherDisplay:10.37 W/m2 CLR
04:16 8.4 °C 7.2 °C 1021.2 hPa Calm     92% 0 mm WeatherDisplay:10.37 W/m2 CLR
04:21 8.3 °C 7.1 °C 1021.2 hPa Calm     92% 0 mm WeatherDisplay:10.37 W/m2 CLR
04:26 8.3 °C 7.1 °C 1020.9 hPa Calm     92% 0 mm WeatherDisplay:10.37 W/m2 CLR
04:31 8.3 °C 7.1 °C 1020.9 hPa Calm     92% 0 mm WeatherDisplay:10.37 W/m2 CLR
04:36 8.2 °C 7 °C 1020.9 hPa Calm     92% 0 mm WeatherDisplay:10.37 W/m2 CLR
04:41 8.2 °C 7 °C 1020.9 hPa Calm     92% 0 mm WeatherDisplay:10.37 W/m2 CLR
04:46 8.2 °C 7 °C 1020.9 hPa Calm     92% 0 mm WeatherDisplay:10.37 W/m2 CLR
04:51 8.2 °C 6.9 °C 1020.9 hPa Calm     92% 0 mm WeatherDisplay:10.37 W/m2 CLR
04:56 8.2 °C 6.9 °C 1020.9 hPa Calm     92% 0 mm WeatherDisplay:10.37 W/m2 CLR
05:02 8.1 °C 6.9 °C 1020.9 hPa Calm     92% 0 mm WeatherDisplay:10.37 W/m2 CLR
05:07 8.2 °C 6.9 °C 1020.9 hPa Calm     92% 0 mm WeatherDisplay:10.37 W/m2 CLR
05:12 8.3 °C 7.1 °C 1020.9 hPa Calm     92% 0 mm WeatherDisplay:10.37 W/m2 CLR
05:17 8.6 °C 7.6 °C 1021.2 hPa Calm     93% 0 mm WeatherDisplay:10.37 W/m2 CLR
05:22 8.7 °C 7.6 °C 1021.2 hPa Calm     93% 0 mm WeatherDisplay:10.37 W/m2 CLR
05:27 8.7 °C 7.4 °C 1021.2 hPa Calm     92% 0 mm WeatherDisplay:10.37 W/m2 CLR
05:32 8.6 °C 7.4 °C 1021.2 hPa Calm     92% 0 mm WeatherDisplay:10.37 W/m2 CLR
05:37 8.6 °C 7.4 °C 1020.9 hPa Calm     92% 0 mm WeatherDisplay:10.37 W/m2 CLR
05:42 8.4 °C 7.2 °C 1020.9 hPa Calm     92% 0 mm WeatherDisplay:10.37 W/m2 CLR
05:45 20.5 °C 10.6 °C 1021.6 hPa Calm     53% 0 mm WeatherDisplay:10.37 W/m2
05:47 8.4 °C 7.2 °C 1020.9 hPa Calm     92% 0 mm WeatherDisplay:10.37 W/m2 CLR
05:52 8.3 °C 7.1 °C 1021.2 hPa Calm     92% 0 mm WeatherDisplay:10.37 W/m2 CLR
05:57 8.2 °C 7 °C 1021.2 hPa Calm     92% 0 mm WeatherDisplay:10.37 W/m2 CLR
06:02 8.2 °C 6.9 °C 1021.2 hPa Calm     92% 0 mm WeatherDisplay:10.37 W/m2 CLR
06:07 8.3 °C 7.1 °C 1021.2 hPa Calm     92% 0 mm WeatherDisplay:10.37 W/m2 CLR
06:12 8.3 °C 7.1 °C 1021.2 hPa Calm     92% 0 mm WeatherDisplay:10.37 W/m2 CLR
06:17 8.3 °C 7.1 °C 1021.2 hPa Calm     92% 0 mm WeatherDisplay:10.37 W/m2 CLR
06:22 8.4 °C 7.4 °C 1021.2 hPa Calm     93% 0 mm WeatherDisplay:10.37 W/m2 CLR
06:27 8.5 °C 7.4 °C 1021.2 hPa Calm     93% 0 mm WeatherDisplay:10.37 W/m2 CLR
06:32 8.5 °C 7.3 °C 1021.2 hPa Calm     92% 0 mm WeatherDisplay:10.37 W/m2 CLR
06:38 8.4 °C 7.2 °C 1021.2 hPa Calm     92% 0 mm WeatherDisplay:10.37 W/m2 CLR
06:43 8.4 °C 7.2 °C 1021.2 hPa Calm     92% 0 mm WeatherDisplay:10.37 W/m2 CLR
06:48 8.4 °C 7.2 °C 1021.2 hPa Calm     92% 0 mm WeatherDisplay:10.37 W/m2 CLR
06:53 8.6 °C 7.5 °C 1021.2 hPa Calm     93% 0 mm WeatherDisplay:10.37 W/m2 CLR
06:58 8.6 °C 7.5 °C 1021.2 hPa Calm     93% 0 mm WeatherDisplay:10.37 W/m2 CLR
07:03 8.6 °C 7.3 °C 1021.2 hPa Calm     92% 0 mm WeatherDisplay:10.37 W/m2 FEW
07:08 8.5 °C 7.3 °C 1021.2 hPa Calm     92% 0 mm WeatherDisplay:10.37 W/m2 FEW
07:13 8.5 °C 7.3 °C 1021.2 hPa Calm     92% 0 mm WeatherDisplay:10.37 W/m2 FEW
07:18 8.5 °C 7.3 °C 1021.2 hPa Calm     92% 0 mm WeatherDisplay:10.37 W/m2 FEW
07:23 8.4 °C 7.2 °C 1021.6 hPa Calm     92% 0 mm WeatherDisplay:10.37 W/m2 FEW
07:28 8.5 °C 7.3 °C 1021.6 hPa Calm     92% 0 mm WeatherDisplay:10.37 W/m2 FEW
07:33 8.5 °C 7.3 °C 1021.6 hPa Calm     92% 0 mm WeatherDisplay:10.37 W/m2 FEW
07:39 8.5 °C 7.3 °C 1021.6 hPa Calm     92% 0 mm WeatherDisplay:10.37 W/m2 FEW
07:45 8.4 °C 7.2 °C 1021.6 hPa Calm     92% 0 mm WeatherDisplay:10.37 W/m2 FEW
07:50 8.4 °C 7.2 °C 1021.6 hPa Calm     92% 0 mm WeatherDisplay:10.37 W/m2 FEW
07:56 8.4 °C 7.2 °C 1021.6 hPa Calm     92% 0 mm WeatherDisplay:10.37 W/m2 FEW
08:01 8.4 °C 7.2 °C 1021.6 hPa Calm     92% 0 mm WeatherDisplay:10.37 W/m2 FEW
08:06 8.3 °C 7.1 °C 1021.6 hPa Calm     92% 0 mm WeatherDisplay:10.37 W/m2 FEW
08:11 8.3 °C 7.1 °C 1021.6 hPa Calm     92% 0 mm WeatherDisplay:10.37 W/m2 FEW
08:16 8.3 °C 7.1 °C 1021.9 hPa Calm     92% 0 mm WeatherDisplay:10.37 W/m2 FEW
08:21 8.4 °C 7.2 °C 1021.9 hPa Calm     92% 0 mm WeatherDisplay:10.37 W/m2 FEW
08:26 8.4 °C 7.2 °C 1021.9 hPa Calm     92% 0 mm WeatherDisplay:10.37 W/m2 FEW
08:31 8.6 °C 7.5 °C 1021.9 hPa Calm     93% 0 mm WeatherDisplay:10.37 W/m2 FEW
08:36 8.7 °C 7.6 °C 1021.9 hPa Calm     93% 0 mm WeatherDisplay:10.37 W/m2 FEW
08:41 8.7 °C 7.7 °C 1021.9 hPa Calm     93% 0 mm WeatherDisplay:10.37 W/m2 FEW
08:46 8.8 °C 7.8 °C 1021.9 hPa Calm     93% 0 mm WeatherDisplay:10.37 W/m2 FEW
08:51 8.9 °C 7.9 °C 1022.2 hPa Calm     93% 0 mm WeatherDisplay:10.37 W/m2 FEW
08:56 9.1 °C 8 °C 1022.2 hPa Calm     93% 0 mm WeatherDisplay:10.37 W/m2 FEW
09:01 9.2 °C 8.1 °C 1022.2 hPa Calm     93% 0 mm WeatherDisplay:10.37 W/m2 BKN
09:06 9.3 °C 8.3 °C 1022.2 hPa Calm     93% 0 mm WeatherDisplay:10.37 W/m2 BKN
09:11 9.5 °C 8.4 °C 1022.6 hPa Calm     93% 0 mm WeatherDisplay:10.37 W/m2 BKN
09:16 9.8 °C 8.8 °C 1022.6 hPa Calm     93% 0 mm WeatherDisplay:10.37 W/m2 BKN
09:21 10.2 °C 9.2 °C 1022.6 hPa Calm     93% 0 mm WeatherDisplay:10.37 W/m2 BKN
09:26 10.6 °C 9.4 °C 1022.6 hPa Calm     93% 0 mm WeatherDisplay:10.37 W/m2 BKN
09:31 10.9 °C 9.7 °C 1022.6 hPa Calm     92% 0 mm WeatherDisplay:10.37 W/m2 BKN
09:37 11.4 °C 9.9 °C 1022.6 hPa Calm     91% 0 mm WeatherDisplay:10.37 W/m2 BKN
09:42 11.7 °C 9.7 °C 1022.6 hPa Calm     88% 0 mm WeatherDisplay:10.37 W/m2 BKN
09:47 11.9 °C 10 °C 1022.9 hPa Calm     88% 0 mm WeatherDisplay:10.37 W/m2 BKN
09:52 12.2 °C 9.9 °C 1022.9 hPa Calm     86% 0 mm WeatherDisplay:10.37 W/m2 BKN
09:57 12.4 °C 10.2 °C 1023.2 hPa Calm     86% 0 mm WeatherDisplay:10.37 W/m2 BKN
10:02 12.8 °C 10.6 °C 1023.2 hPa Calm     86% 0 mm WeatherDisplay:10.37 W/m2 BKN
10:07 13.3 °C 10.7 °C 1023.6 hPa Calm     84% 0 mm WeatherDisplay:10.37 W/m2 BKN
10:12 13.6 °C 10.8 °C 1023.6 hPa Calm     83% 0 mm WeatherDisplay:10.37 W/m2 BKN
10:17 13.9 °C 10.9 °C 1023.2 hPa Calm     82% 0 mm WeatherDisplay:10.37 W/m2 BKN
10:22 14.2 °C 11 °C 1023.2 hPa Calm     81% 0 mm WeatherDisplay:10.37 W/m2 BKN
10:27 14.6 °C 11.2 °C 1023.2 hPa Calm     80% 0 mm WeatherDisplay:10.37 W/m2 BKN
10:32 15 °C 11.2 °C 1023.2 hPa Calm     78% 0 mm WeatherDisplay:10.37 W/m2 BKN
10:37 15.3 °C 11.7 °C 1023.2 hPa Calm     79% 0 mm WeatherDisplay:10.37 W/m2 BKN
10:42 15.5 °C 11.7 °C 1023.2 hPa Calm     78% 0 mm WeatherDisplay:10.37 W/m2 BKN
10:47 15.7 °C 11.4 °C 1023.6 hPa Calm     76% 0 mm WeatherDisplay:10.37 W/m2 BKN
10:52 16 °C 11.8 °C 1023.6 hPa Calm     76% 0 mm WeatherDisplay:10.37 W/m2 BKN
10:57 16.3 °C 11.1 °C 1023.6 hPa NW 1.9 km/h 1.9 km/h 71% 0 mm WeatherDisplay:10.37 W/m2 BKN
11:03 16.6 °C 11.3 °C 1023.6 hPa West 1.9 km/h 1.9 km/h 71% 0 mm WeatherDisplay:10.37 W/m2 BKN
11:08 16.9 °C 11.4 °C 1023.6 hPa West 1.9 km/h   70% 0 mm WeatherDisplay:10.37 W/m2 BKN
11:13 17.1 °C 11.4 °C 1023.6 hPa West 1.9 km/h   69% 0 mm WeatherDisplay:10.37 W/m2 BKN
11:18 17.2 °C 11.4 °C 1023.6 hPa Calm     69% 0 mm WeatherDisplay:10.37 W/m2 BKN
11:23 17.4 °C 11.2 °C 1023.6 hPa Calm     67% 0 mm WeatherDisplay:10.37 W/m2 BKN
11:28 17.6 °C 11.6 °C 1023.6 hPa Calm     68% 0 mm WeatherDisplay:10.37 W/m2 BKN
11:33 17.8 °C 11.1 °C 1023.6 hPa West 1.9 km/h 1.9 km/h 65% 0 mm WeatherDisplay:10.37 W/m2 BKN
11:38 17.9 °C 11.5 °C 1023.6 hPa West 1.9 km/h 1.9 km/h 66% 0 mm WeatherDisplay:10.37 W/m2 BKN
11:43 18.2 °C 11.5 °C 1023.2 hPa West 1.9 km/h   65% 0 mm WeatherDisplay:10.37 W/m2 BKN
11:48 18.2 °C 11.1 °C 1023.2 hPa West 3.7 km/h 3.7 km/h 63% 0 mm WeatherDisplay:10.37 W/m2 BKN
11:53 18.2 °C 11.3 °C 1023.2 hPa Calm     64% 0 mm WeatherDisplay:10.37 W/m2 BKN
11:58 18.3 °C 11.6 °C 1022.9 hPa North 1.9 km/h   65% 0 mm WeatherDisplay:10.37 W/m2 BKN
12:03 18.5 °C 11.6 °C 1022.9 hPa NNE 1.9 km/h   64% 0 mm WeatherDisplay:10.37 W/m2 BKN
12:08 18.7 °C 11.8 °C 1022.9 hPa Calm     64% 0 mm WeatherDisplay:10.37 W/m2 BKN
12:13 19.1 °C 11.6 °C 1022.9 hPa West 1.9 km/h 1.9 km/h 62% 0 mm WeatherDisplay:10.37 W/m2 BKN
12:18 19.4 °C 11.7 °C 1022.9 hPa Calm     61% 0 mm WeatherDisplay:10.37 W/m2 BKN
12:23 19.6 °C 12.1 °C 1022.6 hPa Calm     62% 0 mm WeatherDisplay:10.37 W/m2 BKN
12:28 19.6 °C 11.6 °C 1022.6 hPa WNW 1.9 km/h   60% 0 mm WeatherDisplay:10.37 W/m2 BKN
12:34 19.8 °C 11.6 °C 1022.6 hPa NW 1.9 km/h 1.9 km/h 59% 0 mm WeatherDisplay:10.37 W/m2 BKN
12:39 19.9 °C 11.4 °C 1022.6 hPa Calm     58% 0 mm WeatherDisplay:10.37 W/m2 BKN
12:44 19.9 °C 11.7 °C 1022.2 hPa East 3.7 km/h 3.7 km/h 59% 0 mm WeatherDisplay:10.37 W/m2 BKN
12:49 20.1 °C 10.7 °C 1022.2 hPa WNW 3.7 km/h 3.7 km/h 55% 0 mm WeatherDisplay:10.37 W/m2 BKN
12:54 20.1 °C 10.4 °C 1022.2 hPa West 1.9 km/h 1.9 km/h 54% 0 mm WeatherDisplay:10.37 W/m2 BKN
12:59 20 °C 10.9 °C 1022.2 hPa WNW 1.9 km/h 1.9 km/h 56% 0 mm WeatherDisplay:10.37 W/m2 BKN
13:04 20.2 °C 11.7 °C 1021.9 hPa WNW 1.9 km/h 1.9 km/h 58% 0 mm WeatherDisplay:10.37 W/m2 BKN
13:09 20.2 °C 10.3 °C 1021.9 hPa NE 3.7 km/h 3.7 km/h 53% 0 mm WeatherDisplay:10.37 W/m2 BKN
13:14 20.2 °C 11.1 °C 1021.9 hPa NW 1.9 km/h 1.9 km/h 56% 0 mm WeatherDisplay:10.37 W/m2 BKN
13:19 20.2 °C 10.9 °C 1021.9 hPa West 3.2 km/h 3.2 km/h 55% 0 mm WeatherDisplay:10.37 W/m2 BKN
13:24 20.3 °C 10.9 °C 1021.9 hPa WNW 1.9 km/h 1.9 km/h 55% 0 mm WeatherDisplay:10.37 W/m2 BKN
13:29 20.4 °C 11.1 °C 1021.6 hPa NW 3.7 km/h 3.7 km/h 55% 0 mm WeatherDisplay:10.37 W/m2 BKN
13:34 20.4 °C 10.3 °C 1021.6 hPa NNE 1.9 km/h   52% 0 mm WeatherDisplay:10.37 W/m2 BKN
13:39 20.5 °C 10.9 °C 1021.6 hPa NNE 1.9 km/h   54% 0 mm WeatherDisplay:10.37 W/m2 BKN
13:44 20.5 °C 10.6 °C 1021.6 hPa SSW 1.9 km/h 1.9 km/h 53% 0 mm WeatherDisplay:10.37 W/m2 BKN
13:49 20.6 °C 10.9 °C 1021.2 hPa West 1.9 km/h 1.9 km/h 54% 0 mm WeatherDisplay:10.37 W/m2 BKN
13:54 20.5 °C 10.3 °C 1021.2 hPa West 3.7 km/h 3.7 km/h 52% 0 mm WeatherDisplay:10.37 W/m2 BKN
14:00 20.3 °C 10.9 °C 1021.2 hPa Calm     55% 0 mm WeatherDisplay:10.37 W/m2 BKN
14:04 20.3 °C 11 °C 1021.2 hPa WNW 1.9 km/h   55% 0 mm WeatherDisplay:10.37 W/m2 BKN
14:10 20.7 °C 11.3 °C 1021.2 hPa WNW 1.9 km/h   55% 0 mm WeatherDisplay:10.37 W/m2 BKN
14:15 21.2 °C 11.2 °C 1021.2 hPa WNW 1.9 km/h 1.9 km/h 53% 0 mm WeatherDisplay:10.37 W/m2 BKN
14:20 21.1 °C 10.6 °C 1021.2 hPa Calm   1.6 km/h 51% 0 mm WeatherDisplay:10.37 W/m2 BKN
14:26 21.2 °C 10.9 °C 1020.9 hPa Calm     52% 0 mm WeatherDisplay:10.37 W/m2 BKN
14:31 21.1 °C 10.6 °C 1020.9 hPa West 3.7 km/h 3.7 km/h 51% 0 mm WeatherDisplay:10.37 W/m2 BKN
14:36 20.9 °C 10.7 °C 1020.9 hPa WNW 1.9 km/h   52% 0 mm WeatherDisplay:10.37 W/m2 BKN
14:41 20.8 °C 11.1 °C 1020.9 hPa Calm     54% 0 mm WeatherDisplay:10.37 W/m2 BKN
14:46 20.8 °C 11.1 °C 1020.9 hPa Calm     54% 0 mm WeatherDisplay:10.37 W/m2 BKN
14:51 20.9 °C 11.2 °C 1020.9 hPa Calm     54% 0 mm WeatherDisplay:10.37 W/m2 BKN
14:56 20.8 °C 10.6 °C 1020.9 hPa Calm     52% 0 mm WeatherDisplay:10.37 W/m2 BKN
15:01 20.7 °C 10.4 °C 1020.9 hPa WNW 1.9 km/h   52% 0 mm WeatherDisplay:10.37 W/m2 BKN
15:06 20.5 °C 10.6 °C 1020.5 hPa WNW 1.9 km/h   53% 0 mm WeatherDisplay:10.37 W/m2 BKN
15:11 20.4 °C 11.4 °C 1020.5 hPa Calm     56% 0 mm WeatherDisplay:10.37 W/m2 BKN
15:16 20.4 °C 11.6 °C 1020.5 hPa Calm     57% 0 mm WeatherDisplay:10.37 W/m2 BKN
15:21 20.3 °C 12 °C 1020.5 hPa Calm     59% 0 mm WeatherDisplay:10.37 W/m2 BKN
15:26 20.2 °C 11.9 °C 1020.5 hPa Calm     59% 0 mm WeatherDisplay:10.37 W/m2 BKN
15:31 20.1 °C 11.6 °C 1020.5 hPa Calm     58% 0 mm WeatherDisplay:10.37 W/m2 BKN
15:37 20 °C 11.2 °C 1020.9 hPa Calm     57% 0 mm WeatherDisplay:10.37 W/m2 BKN
15:42 20 °C 11.2 °C 1020.9 hPa Calm     57% 0 mm WeatherDisplay:10.37 W/m2 BKN
15:47 20 °C 11.2 °C 1020.9 hPa NW 1.9 km/h 1.9 km/h 57% 0 mm WeatherDisplay:10.37 W/m2 BKN
15:52 19.9 °C 11.2 °C 1020.5 hPa Calm     57% 0 mm WeatherDisplay:10.37 W/m2 BKN
15:57 19.9 °C 11.4 °C 1020.5 hPa Calm     58% 0 mm WeatherDisplay:10.37 W/m2 BKN
16:02 19.9 °C 11.6 °C 1020.5 hPa Calm     59% 0 mm WeatherDisplay:10.37 W/m2 BKN
16:07 19.8 °C 12.1 °C 1020.5 hPa Calm     61% 0 mm WeatherDisplay:10.37 W/m2 BKN
16:12 19.6 °C 11.9 °C 1020.9 hPa Calm     61% 0 mm WeatherDisplay:10.37 W/m2 BKN
16:17 19.4 °C 11.7 °C 1020.9 hPa Calm     61% 0 mm WeatherDisplay:10.37 W/m2 BKN
16:22 19.2 °C 11.7 °C 1020.9 hPa Calm     62% 0 mm WeatherDisplay:10.37 W/m2 OVC
16:27 19 °C 12.1 °C 1020.9 hPa Calm     64% 0 mm WeatherDisplay:10.37 W/m2 OVC
16:32 18.8 °C 12.1 °C 1020.9 hPa Calm     65% 0 mm WeatherDisplay:10.37 W/m2 OVC
16:37 18.8 °C 12.1 °C 1020.9 hPa Calm     65% 0 mm WeatherDisplay:10.37 W/m2 OVC
16:42 18.7 °C 11.5 °C 1021.2 hPa Calm     63% 0 mm WeatherDisplay:10.37 W/m2 OVC
16:48 18.5 °C 11.6 °C 1021.2 hPa Calm     64% 0 mm WeatherDisplay:10.37 W/m2 OVC
16:53 18.4 °C 11.9 °C 1021.2 hPa Calm     66% 0 mm WeatherDisplay:10.37 W/m2 OVC
16:58 18.2 °C 11.9 °C 1021.2 hPa Calm     67% 0 mm WeatherDisplay:10.37 W/m2 OVC
17:03 17.9 °C 12.6 °C 1021.2 hPa Calm     71% 0 mm WeatherDisplay:10.37 W/m2 -RA
17:08 17.6 °C 12.9 °C 1021.2 hPa Calm     74% 0 mm WeatherDisplay:10.37 W/m2 -RA
17:13 17.1 °C 12.8 °C 1021.2 hPa Calm     76% 0 mm WeatherDisplay:10.37 W/m2 -RA
17:18 16.6 °C 12.9 °C 1021.2 hPa Calm     79% 0 mm WeatherDisplay:10.37 W/m2 -RA
17:23 16.3 °C 13 °C 1021.2 hPa Calm     81% 0.25 mm WeatherDisplay:10.37 W/m2 -RA
17:28 15.9 °C 13 °C 1021.2 hPa Calm     83% 0.51 mm WeatherDisplay:10.37 W/m2 -RA
17:33 15.6 °C 12.9 °C 1021.2 hPa Calm     84% 0.51 mm WeatherDisplay:10.37 W/m2 -RA
17:38 15.3 °C 12.8 °C 1020.9 hPa Calm     85% 0.51 mm WeatherDisplay:10.37 W/m2 -RA
17:43 15.1 °C 12.7 °C 1020.5 hPa Calm     86% 0.51 mm WeatherDisplay:10.37 W/m2 -RA
17:48 14.9 °C 12.8 °C 1020.5 hPa Calm     87% 0.51 mm WeatherDisplay:10.37 W/m2 -RA
17:53 14.8 °C 12.6 °C 1020.5 hPa Calm     87% 0.51 mm WeatherDisplay:10.37 W/m2 -RA
17:58 14.7 °C 12.7 °C 1020.5 hPa Calm     88% 0.51 mm WeatherDisplay:10.37 W/m2 -RA
18:03 14.6 °C 12.4 °C 1020.9 hPa Calm     87% 0.51 mm WeatherDisplay:10.37 W/m2 -DZ
18:08 14.6 °C 12.4 °C 1020.9 hPa Calm     87% 0.51 mm WeatherDisplay:10.37 W/m2 -DZ
18:14 14.6 °C 12.4 °C 1020.9 hPa Calm     87% 0.51 mm WeatherDisplay:10.37 W/m2 -DZ
18:19 14.5 °C 12.6 °C 1020.5 hPa Calm     88% 0.51 mm WeatherDisplay:10.37 W/m2 -DZ
18:24 14.4 °C 12.5 °C 1020.5 hPa Calm     88% 0.25 mm WeatherDisplay:10.37 W/m2 -DZ
18:29 14.4 °C 12.4 °C 1020.5 hPa Calm     88% 0 mm WeatherDisplay:10.37 W/m2 -DZ
18:34 14.3 °C 12.4 °C 1020.5 hPa Calm     88% 0 mm WeatherDisplay:10.37 W/m2 -DZ
18:39 14.2 °C 12.3 °C 1020.5 hPa Calm     88% 0 mm WeatherDisplay:10.37 W/m2 -DZ
18:44 14.2 °C 12.4 °C 1020.5 hPa Calm     89% 0 mm WeatherDisplay:10.37 W/m2 OVC
18:49 14.1 °C 12.3 °C 1020.5 hPa Calm     89% 0 mm WeatherDisplay:10.37 W/m2 OVC
18:54 14.1 °C 12.3 °C 1020.5 hPa Calm     89% 0 mm WeatherDisplay:10.37 W/m2 OVC
18:59 14.1 °C 12.3 °C 1020.5 hPa Calm     89% 0 mm WeatherDisplay:10.37 W/m2 OVC
19:05 14.1 °C 12.5 °C 1020.5 hPa Calm     90% 0 mm WeatherDisplay:10.37 W/m2 OVC
19:10 14.1 °C 12.5 °C 1020.9 hPa Calm     90% 0 mm WeatherDisplay:10.37 W/m2 OVC
19:15 14.1 °C 12.5 °C 1020.9 hPa Calm     90% 0 mm WeatherDisplay:10.37 W/m2 OVC
19:20 14.2 °C 12.6 °C 1020.9 hPa Calm     90% 0 mm WeatherDisplay:10.37 W/m2 OVC
19:25 14.2 °C 12.6 °C 1020.9 hPa Calm     90% 0 mm WeatherDisplay:10.37 W/m2 OVC
19:30 14.2 °C 12.6 °C 1020.9 hPa Calm     90% 0 mm WeatherDisplay:10.37 W/m2 OVC
19:35 14.1 °C 12.5 °C 1020.9 hPa Calm     90% 0 mm WeatherDisplay:10.37 W/m2 OVC
19:40 14.2 °C 12.7 °C 1020.9 hPa Calm     91% 0 mm WeatherDisplay:10.37 W/m2 OVC
19:45 14.2 °C 12.8 °C 1020.9 hPa Calm     91% 0 mm WeatherDisplay:10.37 W/m2 OVC
19:50 14.2 °C 12.8 °C 1020.5 hPa Calm     91% 0 mm WeatherDisplay:10.37 W/m2 OVC
19:55 14.2 °C 12.8 °C 1020.5 hPa Calm     91% 0 mm WeatherDisplay:10.37 W/m2 OVC
20:00 14.3 °C 12.9 °C 1020.9 hPa Calm     91% 0 mm WeatherDisplay:10.37 W/m2 OVC
20:05 14.4 °C 12.9 °C 1020.9 hPa Calm     91% 0 mm WeatherDisplay:10.37 W/m2 OVC
20:10 14.4 °C 13 °C 1020.9 hPa Calm     91% 0 mm WeatherDisplay:10.37 W/m2 OVC
20:15 14.4 °C 13 °C 1020.9 hPa Calm     91% 0 mm WeatherDisplay:10.37 W/m2 OVC
20:20 14.4 °C 12.9 °C 1020.9 hPa Calm     91% 0 mm WeatherDisplay:10.37 W/m2 OVC
20:25 14.4 °C 12.9 °C 1020.9 hPa Calm     91% 0 mm WeatherDisplay:10.37 W/m2 OVC
20:26 14.4 °C 12.9 °C 1020.9 hPa Calm     91% 0 mm WeatherDisplay:10.37 W/m2 OVC
20:31 14.3 °C 12.9 °C 1020.9 hPa Calm     91% 0 mm WeatherDisplay:10.37 W/m2 OVC
20:36 14.3 °C 12.8 °C 1020.9 hPa Calm     91% 0 mm WeatherDisplay:10.37 W/m2 OVC
20:41 14.3 °C 12.8 °C 1020.9 hPa Calm     91% 0 mm WeatherDisplay:10.37 W/m2 OVC
20:46 14.3 °C 12.8 °C 1020.9 hPa Calm     91% 0 mm WeatherDisplay:10.37 W/m2 OVC
20:51 14.3 °C 12.8 °C 1020.9 hPa Calm     91% 0 mm WeatherDisplay:10.37 W/m2 OVC
20:56 14.3 °C 12.7 °C 1020.9 hPa Calm     90% 0 mm WeatherDisplay:10.37 W/m2 OVC
21:01 14.3 °C 12.7 °C 1020.9 hPa Calm     90% 0 mm WeatherDisplay:10.37 W/m2 OVC
21:06 14.3 °C 12.7 °C 1020.9 hPa Calm     90% 0 mm WeatherDisplay:10.37 W/m2 OVC
21:11 14.2 °C 12.6 °C 1020.9 hPa Calm     90% 0 mm WeatherDisplay:10.37 W/m2 OVC
21:17 14.2 °C 12.8 °C 1020.9 hPa Calm     91% 0 mm WeatherDisplay:10.37 W/m2 OVC
21:22 14.3 °C 12.7 °C 1020.9 hPa Calm     90% 0 mm WeatherDisplay:10.37 W/m2 OVC
21:27 14.3 °C 12.7 °C 1020.9 hPa Calm     90% 0 mm WeatherDisplay:10.37 W/m2 OVC
21:32 14.3 °C 12.7 °C 1021.2 hPa Calm     90% 0 mm WeatherDisplay:10.37 W/m2 OVC
21:37 14.3 °C 12.7 °C 1021.2 hPa Calm     90% 0 mm WeatherDisplay:10.37 W/m2 OVC
21:42 14.3 °C 12.7 °C 1021.2 hPa Calm     90% 0 mm WeatherDisplay:10.37 W/m2 OVC
21:47 14.3 °C 12.7 °C 1021.2 hPa Calm     90% 0 mm WeatherDisplay:10.37 W/m2 OVC
21:52 14.2 °C 12.6 °C 1021.2 hPa Calm     90% 0 mm WeatherDisplay:10.37 W/m2 OVC
21:57 14.2 °C 12.6 °C 1021.2 hPa Calm     90% 0 mm WeatherDisplay:10.37 W/m2 OVC
22:02 14.2 °C 12.6 °C 1021.2 hPa Calm     90% 0 mm WeatherDisplay:10.37 W/m2 OVC
22:07 14.2 °C 12.8 °C 1021.2 hPa Calm     91% 0 mm WeatherDisplay:10.37 W/m2 OVC
22:12 14.2 °C 12.7 °C 1021.2 hPa Calm     91% 0 mm WeatherDisplay:10.37 W/m2 OVC
22:17 14.2 °C 12.7 °C 1021.6 hPa Calm     91% 0 mm WeatherDisplay:10.37 W/m2 OVC
22:22 14.2 °C 12.7 °C 1021.6 hPa Calm     91% 0 mm WeatherDisplay:10.37 W/m2 OVC
22:27 14.2 °C 12.6 °C 1021.6 hPa Calm     90% 0 mm WeatherDisplay:10.37 W/m2 OVC
22:32 14.2 °C 12.6 °C 1021.6 hPa Calm     90% 0 mm WeatherDisplay:10.37 W/m2 OVC
22:37 14.2 °C 12.6 °C 1021.9 hPa Calm     90% 0 mm WeatherDisplay:10.37 W/m2 OVC
22:43 14.3 °C 12.7 °C 1021.9 hPa Calm     90% 0 mm WeatherDisplay:10.37 W/m2 OVC
22:48 14.2 °C 12.6 °C 1021.9 hPa Calm     90% 0 mm WeatherDisplay:10.37 W/m2 OVC
22:53 14.2 °C 12.6 °C 1021.9 hPa Calm     90% 0 mm WeatherDisplay:10.37 W/m2 OVC
22:58 14.2 °C 12.6 °C 1021.9 hPa Calm     90% 0 mm WeatherDisplay:10.37 W/m2 OVC
23:03 14.1 °C 12.4 °C 1021.9 hPa Calm     90% 0 mm WeatherDisplay:10.37 W/m2 BKN
23:08 14 °C 12.4 °C 1021.9 hPa Calm     90% 0 mm WeatherDisplay:10.37 W/m2 BKN
23:13 13.9 °C 12.3 °C 1021.9 hPa Calm     90% 0 mm WeatherDisplay:10.37 W/m2 BKN
23:18 13.7 °C 12.1 °C 1021.9 hPa Calm     90% 0 mm WeatherDisplay:10.37 W/m2 BKN
23:22 13.7 °C 12.1 °C 1021.9 hPa Calm     90% 0 mm WeatherDisplay:10.37 W/m2 BKN
23:27 13.7 °C 12.1 °C 1021.9 hPa Calm     90% 0 mm WeatherDisplay:10.37 W/m2 BKN
23:32 13.6 °C 12 °C 1021.9 hPa Calm     90% 0 mm WeatherDisplay:10.37 W/m2 BKN
23:37 13.5 °C 11.9 °C 1021.9 hPa Calm     90% 0 mm WeatherDisplay:10.37 W/m2 BKN
23:42 13.5 °C 11.9 °C 1021.9 hPa Calm     90% 0 mm WeatherDisplay:10.37 W/m2 BKN
23:47 13.5 °C 11.9 °C 1021.9 hPa Calm     90% 0 mm WeatherDisplay:10.37 W/m2 BKN
23:52 13.5 °C 11.9 °C 1022.2 hPa Calm     90% 0 mm WeatherDisplay:10.37 W/m2 BKN
23:57 13.5 °C 11.9 °C 1022.2 hPa Calm     90% 0 mm WeatherDisplay:10.37 W/m2 BKN
Piedmont Bend
Compliments of Weather Underground - 4 mb